Time;durP1;ratioP1;P1;durP2;ratioP2;P2;SDS_P1;SDS_P2;PMS_P1;PMS_P2;Temp;Humidity;BMP_temperature;BMP_pressure;BME280_temperature;BME280_humidity;BME280_pressure;Samples;Min_cycle;Max_cycle;Signal;HPM_P1;HPM_P2
2022/04/11 00:00:17;;;;;;;;;;;1.40;99.90;;;;;;4892671;29;20010;-73
2022/04/11 00:02:44;;;;;;;;;;;1.30;99.90;;;;;;4891705;23;20239;-72
2022/04/11 00:05:11;;;;;;;;;;;1.30;99.90;;;;;;4910706;29;20434;-72
2022/04/11 00:07:37;;;;;;;;;;;1.40;99.90;;;;;;4879858;29;19977;-72
2022/04/11 00:10:04;;;;;;;;;;;1.40;99.90;;;;;;4897136;29;19930;-72
2022/04/11 00:12:37;;;;;;;;;;;1.40;99.90;;;;;;4895493;29;19923;-72
2022/04/11 00:15:09;;;;;;;;;;;1.40;99.90;;;;;;4896374;29;19928;-72
2022/04/11 00:17:36;;;;;;;;;;;1.50;99.90;;;;;;4880064;29;19923;-72
2022/04/11 00:20:07;;;;;;;;;;;1.50;99.90;;;;;;4896369;29;19923;-72
2022/04/11 00:22:39;;;;;;;;;;;1.50;99.90;;;;;;4896034;29;19930;-73
2022/04/11 00:25:11;;;;;;;;;;;1.50;99.90;;;;;;4897272;29;19943;-73
2022/04/11 00:27:42;;;;;;;;;;;1.50;99.90;;;;;;4897414;29;19923;-73
2022/04/11 00:30:14;;;;;;;;;;;1.40;99.90;;;;;;4896290;29;19923;-72
2022/04/11 00:32:47;;;;;;;;;;;1.40;99.90;;;;;;4895810;29;19923;-73
2022/04/11 00:35:19;;;;;;;;;;;1.40;99.90;;;;;;4881240;29;20398;-72
2022/04/11 00:37:52;;;;;;;;;;;1.40;99.90;;;;;;4896106;29;19924;-72
2022/04/11 00:40:24;;;;;;;;;;;1.40;99.90;;;;;;4895901;29;19934;-72
2022/04/11 00:42:50;;;;;;;;;;;1.30;99.90;;;;;;4880257;29;20402;-72
2022/04/11 00:45:22;;;;;;;;;;;1.20;99.90;;;;;;4895848;29;19930;-72
2022/04/11 00:47:53;;;;;;;;;;;1.20;99.90;;;;;;4896141;29;20331;-72
2022/04/11 00:50:25;;;;;;;;;;;1.20;99.90;;;;;;4895129;29;19924;-72
2022/04/11 00:52:59;;;;;;;;;;;1.20;99.90;;;;;;4896838;29;19923;-72
2022/04/11 00:55:30;;;;;;;;;;;1.10;99.90;;;;;;4897018;29;19978;-72
2022/04/11 00:58:04;;;;;;;;;;;1.10;99.90;;;;;;4895978;29;19962;-72
2022/04/11 01:00:36;;;;;;;;;;;1.10;99.90;;;;;;4881009;29;20282;-72
2022/04/11 01:03:08;;;;;;;;;;;1.10;99.90;;;;;;4894789;29;20581;-72
2022/04/11 01:05:40;;;;;;;;;;;1.10;99.90;;;;;;4895154;29;19931;-72
2022/04/11 01:08:12;;;;;;;;;;;1.00;99.90;;;;;;4895301;29;19930;-72
2022/04/11 01:10:43;;;;;;;;;;;1.00;99.90;;;;;;4895525;29;19930;-72
2022/04/11 01:13:15;;;;;;;;;;;1.00;99.90;;;;;;4879942;29;19923;-72
2022/04/11 01:15:54;;;;;;;;;;;1.00;99.90;;;;;;4895450;29;20429;-72
2022/04/11 01:18:26;;;;;;;;;;;1.00;99.90;;;;;;4895176;29;19958;-72
2022/04/11 01:20:58;;;;;;;;;;;1.00;99.90;;;;;;4895406;29;19923;-72
2022/04/11 01:23:29;;;;;;;;;;;0.90;99.90;;;;;;4898267;29;20264;-72
2022/04/11 01:26:02;;;;;;;;;;;0.90;99.90;;;;;;4898635;29;19923;-72
2022/04/11 01:28:37;;;;;;;;;;;0.90;99.90;;;;;;4898676;29;19959;-72
2022/04/11 01:31:09;;;;;;;;;;;0.90;99.90;;;;;;4898779;29;19931;-72
2022/04/11 01:33:41;;;;;;;;;;;0.90;99.90;;;;;;4898301;29;20356;-72
2022/04/11 01:36:13;;;;;;;;;;;0.90;99.90;;;;;;4898357;29;20386;-72
2022/04/11 01:38:45;;;;;;;;;;;0.90;99.90;;;;;;4883419;29;19927;-72
2022/04/11 01:41:19;;;;;;;;;;;0.90;99.90;;;;;;4898459;29;20687;-72
2022/04/11 01:43:51;;;;;;;;;;;0.90;99.90;;;;;;4897494;29;19932;-72
2022/04/11 01:46:23;;;;;;;;;;;0.90;99.90;;;;;;4898541;29;20010;-72
2022/04/11 01:48:59;;;;;;;;;;;0.90;99.90;;;;;;4899397;29;19923;-72
2022/04/11 01:51:30;;;;;;;;;;;0.80;99.90;;;;;;4897693;29;19923;-72
2022/04/11 01:54:02;;;;;;;;;;;0.90;99.90;;;;;;4897608;29;19923;-72
2022/04/11 01:56:34;;;;;;;;;;;0.90;99.90;;;;;;4883573;29;19931;-73
2022/04/11 01:59:06;;;;;;;;;;;0.90;99.90;;;;;;4897918;29;20550;-72
2022/04/11 02:01:38;;;;;;;;;;;0.90;99.90;;;;;;4898291;29;19930;-72
2022/04/11 02:04:09;;;;;;;;;;;0.90;99.90;;;;;;4882763;29;20386;-72
2022/04/11 02:06:41;;;;;;;;;;;0.90;99.90;;;;;;4897868;29;19980;-72
2022/04/11 02:09:14;;;;;;;;;;;0.90;99.90;;;;;;4897875;29;19978;-72
2022/04/11 02:11:46;;;;;;;;;;;0.90;99.90;;;;;;4897737;29;19923;-73
2022/04/11 02:14:18;;;;;;;;;;;0.90;99.90;;;;;;4897907;29;20278;-72
2022/04/11 02:16:49;;;;;;;;;;;0.90;99.90;;;;;;4882911;29;20382;-72
2022/04/11 02:19:21;;;;;;;;;;;0.90;99.90;;;;;;4897838;29;19927;-73
2022/04/11 02:21:52;;;;;;;;;;;0.90;99.90;;;;;;4897574;29;19923;-73
2022/04/11 02:24:24;;;;;;;;;;;0.90;99.90;;;;;;4882720;29;19927;-72
2022/04/11 02:26:51;;;;;;;;;;;0.80;99.90;;;;;;4897605;29;20011;-72
2022/04/11 02:29:23;;;;;;;;;;;0.80;99.90;;;;;;4897620;29;20385;-72
2022/04/11 02:31:55;;;;;;;;;;;0.80;99.90;;;;;;4882188;29;19931;-72
2022/04/11 02:34:27;;;;;;;;;;;0.70;99.90;;;;;;4897490;29;19933;-72
2022/04/11 02:36:58;;;;;;;;;;;0.70;99.90;;;;;;4882544;29;20018;-73
2022/04/11 02:39:30;;;;;;;;;;;0.70;99.90;;;;;;4897453;29;19923;-72
2022/04/11 02:42:02;;;;;;;;;;;0.70;99.90;;;;;;4896877;29;19924;-72
2022/04/11 02:44:33;;;;;;;;;;;0.70;99.90;;;;;;4898297;29;19923;-72
2022/04/11 02:47:05;;;;;;;;;;;0.70;99.90;;;;;;4897289;29;19927;-72
2022/04/11 02:49:37;;;;;;;;;;;0.70;99.90;;;;;;4897081;29;20446;-72
2022/04/11 02:52:29;;;;;;;;;;;0.70;99.90;;;;;;4895990;29;19923;-72
2022/04/11 02:55:00;;;;;;;;;;;0.70;99.90;;;;;;4897156;29;19931;-72
2022/04/11 02:57:32;;;;;;;;;;;0.70;99.90;;;;;;4896872;29;20354;-72
2022/04/11 03:00:06;;;;;;;;;;;0.70;99.90;;;;;;4898301;29;19949;-72
2022/04/11 03:02:41;;;;;;;;;;;0.70;99.90;;;;;;4896434;29;19930;-72
2022/04/11 03:05:13;;;;;;;;;;;0.70;99.90;;;;;;4897105;29;20342;-72
2022/04/11 03:07:47;;;;;;;;;;;0.70;99.90;;;;;;4882276;29;19931;-72
2022/04/11 03:10:19;;;;;;;;;;;0.70;99.90;;;;;;4896905;29;19947;-73
2022/04/11 03:12:55;;;;;;;;;;;0.70;99.90;;;;;;4896419;29;19930;-72
2022/04/11 03:15:28;;;;;;;;;;;0.70;99.90;;;;;;4896628;29;19951;-72
2022/04/11 03:18:00;;;;;;;;;;;0.70;99.90;;;;;;4896977;29;20362;-72
2022/04/11 03:20:35;;;;;;;;;;;0.70;99.90;;;;;;4882569;29;19923;-72
2022/04/11 03:23:07;;;;;;;;;;;0.70;99.90;;;;;;4896696;29;20397;-73
2022/04/11 03:25:43;;;;;;;;;;;0.70;99.90;;;;;;4897225;29;20273;-72
2022/04/11 03:28:20;;;;;;;;;;;0.70;99.90;;;;;;4882763;29;19927;-72
2022/04/11 03:30:52;;;;;;;;;;;0.70;99.90;;;;;;4896979;29;20401;-73
2022/04/11 03:33:25;;;;;;;;;;;0.70;99.90;;;;;;4896540;29;20450;-72
2022/04/11 03:35:57;;;;;;;;;;;0.70;99.90;;;;;;4896753;29;19924;-72
2022/04/11 03:38:29;;;;;;;;;;;0.70;99.90;;;;;;4897095;29;19945;-72
2022/04/11 03:40:58;;;;;;;;;;;0.60;99.90;;;;;;4896747;29;19927;-72
2022/04/11 03:43:29;;;;;;;;;;;0.60;99.90;;;;;;4881097;29;19930;-72
2022/04/11 03:45:56;;;;;;;;;;;0.60;99.90;;;;;;4881012;29;19968;-72
2022/04/11 03:48:22;;;;;;;;;;;0.60;99.90;;;;;;4896834;29;19930;-72
2022/04/11 03:50:54;;;;;;;;;;;0.60;99.90;;;;;;4881055;29;20014;-73
2022/04/11 03:53:26;;;;;;;;;;;0.60;99.90;;;;;;4896213;29;19979;-72
2022/04/11 03:55:59;;;;;;;;;;;0.50;99.90;;;;;;4896420;29;19923;-72
2022/04/11 03:58:31;;;;;;;;;;;0.50;99.90;;;;;;4881917;29;20014;-72
2022/04/11 04:01:05;;;;;;;;;;;0.50;99.90;;;;;;4896410;29;19972;-72
2022/04/11 04:03:37;;;;;;;;;;;0.60;99.90;;;;;;4904396;29;19966;-72
2022/04/11 04:06:11;;;;;;;;;;;0.60;99.90;;;;;;4920474;29;19945;-72
2022/04/11 04:08:45;;;;;;;;;;;0.60;99.90;;;;;;4923845;29;19923;-72
2022/04/11 04:11:23;;;;;;;;;;;0.60;99.90;;;;;;4915299;29;20017;-72
2022/04/11 04:14:11;;;;;;;;;;;0.50;99.90;;;;;;4914970;29;19949;-72
2022/04/11 04:16:47;;;;;;;;;;;0.50;99.90;;;;;;4914689;29;20285;-72
2022/04/11 04:19:27;;;;;;;;;;;0.50;99.90;;;;;;4909804;29;19927;-73
2022/04/11 04:22:06;;;;;;;;;;;0.50;99.90;;;;;;4909476;29;19923;-72
2022/04/11 04:24:34;;;;;;;;;;;0.50;99.90;;;;;;4901466;29;19949;-72
2022/04/11 04:27:08;;;;;;;;;;;0.50;99.90;;;;;;4904664;29;19945;-72
2022/04/11 04:29:39;;;;;;;;;;;0.50;99.90;;;;;;4919641;29;19993;-72
2022/04/11 04:32:11;;;;;;;;;;;0.50;99.90;;;;;;4923546;29;20408;-72
2022/04/11 04:34:45;;;;;;;;;;;0.50;99.90;;;;;;4914555;29;19927;-72
2022/04/11 04:37:19;;;;;;;;;;;0.50;99.90;;;;;;4935663;29;20075;-72
2022/04/11 04:39:52;;;;;;;;;;;0.40;99.90;;;;;;4933307;29;20022;-72
2022/04/11 04:42:26;;;;;;;;;;;0.40;99.90;;;;;;4934458;29;19922;-72
2022/04/11 04:44:57;;;;;;;;;;;0.40;99.90;;;;;;4950063;28;19923;-72
2022/04/11 04:47:30;;;;;;;;;;;0.40;99.90;;;;;;4935700;29;20192;-72
2022/04/11 04:50:02;;;;;;;;;;;0.40;99.90;;;;;;4934110;29;19933;-72
2022/04/11 04:52:30;;;;;;;;;;;0.40;99.90;;;;;;4949829;28;20431;-72
2022/04/11 04:55:04;;;;;;;;;;;0.40;99.90;;;;;;4934370;29;20005;-72
2022/04/11 04:57:35;;;;;;;;;;;0.40;99.90;;;;;;4936931;29;19923;-72
2022/04/11 05:00:07;;;;;;;;;;;0.40;99.90;;;;;;4938010;29;19933;-72
2022/04/11 05:02:44;;;;;;;;;;;0.40;99.90;;;;;;4938256;29;19923;-72
2022/04/11 05:05:15;;;;;;;;;;;0.40;99.90;;;;;;4937469;29;19970;-72
2022/04/11 05:07:48;;;;;;;;;;;0.40;99.90;;;;;;4937722;29;19991;-72
2022/04/11 05:10:23;;;;;;;;;;;0.40;99.90;;;;;;4937791;29;19961;-72
2022/04/11 05:12:55;;;;;;;;;;;0.40;99.90;;;;;;4937429;29;19922;-72
2022/04/11 05:15:28;;;;;;;;;;;0.40;99.90;;;;;;4937722;29;19929;-72
2022/04/11 05:18:08;;;;;;;;;;;0.50;99.90;;;;;;4937932;29;20377;-72
2022/04/11 05:20:37;;;;;;;;;;;0.50;99.90;;;;;;4937631;29;19922;-72
2022/04/11 05:23:10;;;;;;;;;;;0.50;99.90;;;;;;4937283;29;20369;-71
2022/04/11 05:25:42;;;;;;;;;;;0.50;99.90;;;;;;4937794;29;19930;-75
2022/04/11 05:28:16;;;;;;;;;;;0.50;99.90;;;;;;4932366;29;19945;-72
2022/04/11 05:30:49;;;;;;;;;;;0.50;99.90;;;;;;4923187;29;19951;-72
2022/04/11 05:33:18;;;;;;;;;;;0.60;99.90;;;;;;4916908;29;19946;-72
2022/04/11 05:35:50;;;;;;;;;;;0.60;99.90;;;;;;4916162;29;19926;-72
2022/04/11 05:38:22;;;;;;;;;;;0.60;99.90;;;;;;4922751;29;19956;-72
2022/04/11 05:40:56;;;;;;;;;;;0.70;99.90;;;;;;4930982;29;19929;-72
2022/04/11 05:43:37;;;;;;;;;;;0.70;99.90;;;;;;4917353;29;19930;-72
2022/04/11 05:46:11;;;;;;;;;;;0.70;99.90;;;;;;4917658;29;20026;-72
2022/04/11 05:48:44;;;;;;;;;;;0.80;99.90;;;;;;4917604;29;20017;-72
2022/04/11 05:51:15;;;;;;;;;;;0.80;99.90;;;;;;4918699;29;19923;-72
2022/04/11 05:53:47;;;;;;;;;;;0.80;99.90;;;;;;4902286;29;19930;-72
2022/04/11 05:56:14;;;;;;;;;;;0.90;99.90;;;;;;4925208;29;19930;-72
2022/04/11 05:58:46;;;;;;;;;;;0.90;99.90;;;;;;4918075;29;20013;-72
2022/04/11 06:01:17;;;;;;;;;;;0.90;99.90;;;;;;4920926;29;19933;-72
2022/04/11 06:03:49;;;;;;;;;;;1.00;99.90;;;;;;4936900;23;19923;-72
2022/04/11 06:06:20;;;;;;;;;;;1.00;99.90;;;;;;4896727;29;19927;-74
2022/04/11 06:08:52;;;;;;;;;;;1.00;99.90;;;;;;4907918;29;19927;-73
2022/04/11 06:11:24;;;;;;;;;;;1.10;99.90;;;;;;4894080;29;20050;-72
2022/04/11 06:13:57;;;;;;;;;;;1.50;99.90;;;;;;4910893;29;19923;-73
2022/04/11 06:16:29;;;;;;;;;;;1.90;99.90;;;;;;4895845;29;19928;-73
2022/04/11 06:19:01;;;;;;;;;;;2.20;99.90;;;;;;4894555;29;19924;-73
2022/04/11 06:21:33;;;;;;;;;;;2.50;99.90;;;;;;4905994;29;20030;-73
2022/04/11 06:24:05;;;;;;;;;;;2.80;99.90;;;;;;4908644;29;19927;-72
2022/04/11 06:26:32;;;;;;;;;;;3.10;99.90;;;;;;4908018;29;20373;-72
2022/04/11 06:29:04;;;;;;;;;;;3.20;99.90;;;;;;4883349;29;19932;-73
2022/04/11 06:31:35;;;;;;;;;;;3.30;99.90;;;;;;4879971;29;20429;-73
2022/04/11 06:34:11;;;;;;;;;;;3.30;99.90;;;;;;4899075;29;19972;-72
2022/04/11 06:36:43;;;;;;;;;;;3.10;99.90;;;;;;4908419;29;19929;-72
2022/04/11 06:39:14;;;;;;;;;;;2.90;99.90;;;;;;4909166;29;19930;-72
2022/04/11 06:41:51;;;;;;;;;;;2.70;99.90;;;;;;4884981;29;19928;-72
2022/04/11 06:44:24;;;;;;;;;;;2.60;99.90;;;;;;4903145;29;19923;-72
2022/04/11 06:46:56;;;;;;;;;;;2.40;99.90;;;;;;4905646;29;19928;-72
2022/04/11 06:49:28;;;;;;;;;;;2.30;99.90;;;;;;4908017;29;19923;-72
2022/04/11 06:52:00;;;;;;;;;;;2.20;99.90;;;;;;4895880;29;19924;-72
2022/04/11 06:54:32;;;;;;;;;;;2.20;99.90;;;;;;4880362;29;20378;-72
2022/04/11 06:57:03;;;;;;;;;;;2.10;99.90;;;;;;4909324;29;19930;-72
2022/04/11 06:59:35;;;;;;;;;;;2.10;99.90;;;;;;4886267;29;20035;-72
2022/04/11 07:02:07;;;;;;;;;;;2.10;99.90;;;;;;4890237;29;19946;-72
2022/04/11 07:04:38;;;;;;;;;;;2.20;99.90;;;;;;4882855;29;19924;-72
2022/04/11 07:07:10;;;;;;;;;;;2.30;99.90;;;;;;4897928;29;19923;-72
2022/04/11 07:09:36;;;;;;;;;;;2.40;99.90;;;;;;4902814;29;19931;-72
2022/04/11 07:12:03;;;;;;;;;;;2.40;99.90;;;;;;4895112;29;19924;-73
2022/04/11 07:14:35;;;;;;;;;;;2.50;99.90;;;;;;4877592;29;20460;-73
2022/04/11 07:17:06;;;;;;;;;;;2.60;99.90;;;;;;4879673;29;19923;-72
2022/04/11 07:19:38;;;;;;;;;;;2.60;99.90;;;;;;4877783;29;19924;-72
2022/04/11 07:22:09;;;;;;;;;;;2.80;99.90;;;;;;4880173;29;19958;-72
2022/04/11 07:24:37;;;;;;;;;;;2.80;99.90;;;;;;4883766;29;20018;-72
2022/04/11 07:27:08;;;;;;;;;;;2.90;99.90;;;;;;4895311;29;21271;-72
2022/04/11 07:29:35;;;;;;;;;;;3.00;99.90;;;;;;4884609;29;19923;-72
2022/04/11 07:32:07;;;;;;;;;;;3.10;99.90;;;;;;4878012;29;19924;-73
2022/04/11 07:34:40;;;;;;;;;;;3.30;99.90;;;;;;4893119;29;19924;-72
2022/04/11 07:37:12;;;;;;;;;;;3.40;99.90;;;;;;4893429;29;19927;-72
2022/04/11 07:39:45;;;;;;;;;;;3.60;99.90;;;;;;4879434;29;19930;-72
2022/04/11 07:42:11;;;;;;;;;;;3.80;99.90;;;;;;4878707;29;19923;-73
2022/04/11 07:44:38;;;;;;;;;;;4.00;99.90;;;;;;4879093;29;20003;-72
2022/04/11 07:47:10;;;;;;;;;;;4.20;99.90;;;;;;4882110;29;19986;-72
2022/04/11 07:49:41;;;;;;;;;;;4.40;99.90;;;;;;4897880;29;19924;-72
2022/04/11 07:52:13;;;;;;;;;;;4.50;99.90;;;;;;4894117;29;20259;-73
2022/04/11 07:54:44;;;;;;;;;;;4.70;99.90;;;;;;4889477;29;19923;-73
2022/04/11 07:57:16;;;;;;;;;;;4.80;99.90;;;;;;4878949;29;19923;-73
2022/04/11 07:59:48;;;;;;;;;;;4.90;99.90;;;;;;4893249;29;20015;-72
2022/04/11 08:02:26;;;;;;;;;;;5.00;99.90;;;;;;4878060;29;19931;-73
2022/04/11 08:05:00;;;;;;;;;;;5.20;99.90;;;;;;4898813;29;20293;-73
2022/04/11 08:07:35;;;;;;;;;;;5.30;99.90;;;;;;4894238;29;19929;-73
2022/04/11 08:10:06;;;;;;;;;;;5.40;99.90;;;;;;4889910;29;19930;-72
2022/04/11 08:12:38;;;;;;;;;;;5.60;99.90;;;;;;4878342;29;20270;-72
2022/04/11 08:15:10;;;;;;;;;;;5.80;99.90;;;;;;4897872;29;20006;-72
2022/04/11 08:17:41;;;;;;;;;;;6.00;99.90;;;;;;4903441;29;20022;-72
2022/04/11 08:20:13;;;;;;;;;;;6.20;99.90;;;;;;4905231;29;19924;-73
2022/04/11 08:22:45;;;;;;;;;;;6.40;99.90;;;;;;4903863;29;19931;-73
2022/04/11 08:25:17;;;;;;;;;;;6.50;99.90;;;;;;4896997;29;20381;-73
2022/04/11 08:27:50;;;;;;;;;;;6.70;99.90;;;;;;4892029;29;19939;-73
2022/04/11 08:30:17;;;;;;;;;;;6.90;99.90;;;;;;4903700;29;19924;-73
2022/04/11 08:32:50;;;;;;;;;;;7.00;99.90;;;;;;4896976;29;19923;-72
2022/04/11 08:35:22;;;;;;;;;;;7.20;99.90;;;;;;4910948;29;19930;-73
2022/04/11 08:37:53;;;;;;;;;;;7.30;99.90;;;;;;4911009;29;19924;-73
2022/04/11 08:40:25;;;;;;;;;;;7.40;99.90;;;;;;4897221;29;20402;-73
2022/04/11 08:42:59;;;;;;;;;;;7.60;99.90;;;;;;4893905;29;19924;-73
2022/04/11 08:45:31;;;;;;;;;;;7.70;99.90;;;;;;4860171;29;19935;-73
2022/04/11 08:48:03;;;;;;;;;;;7.90;99.90;;;;;;4873919;29;20298;-73
2022/04/11 08:50:34;;;;;;;;;;;8.00;99.90;;;;;;4877890;29;19931;-73
2022/04/11 08:53:06;;;;;;;;;;;8.10;99.90;;;;;;4898833;29;19931;-73
2022/04/11 08:55:38;;;;;;;;;;;8.30;99.90;;;;;;4905009;29;19947;-72
2022/04/11 08:58:09;;;;;;;;;;;8.40;99.90;;;;;;4906848;29;19931;-73
2022/04/11 09:00:41;;;;;;;;;;;8.50;99.90;;;;;;4896105;29;19924;-73
2022/04/11 09:03:13;;;;;;;;;;;8.50;99.90;;;;;;4884213;29;20378;-73
2022/04/11 09:06:01;;;;;;;;;;;8.60;99.90;;;;;;4883089;29;20018;-73
2022/04/11 09:08:39;;;;;;;;;;;8.70;99.90;;;;;;4876853;29;19924;-73
2022/04/11 09:11:11;;;;;;;;;;;8.80;99.90;;;;;;4892007;29;19934;-73
2022/04/11 09:13:47;;;;;;;;;;;8.90;99.90;;;;;;4878015;29;19931;-73
2022/04/11 09:16:19;;;;;;;;;;;9.00;99.90;;;;;;4877262;29;20388;-73
2022/04/11 09:18:52;;;;;;;;;;;9.20;99.90;;;;;;4876932;29;19935;-73
2022/04/11 09:21:24;;;;;;;;;;;9.30;99.90;;;;;;4890329;29;19927;-72
2022/04/11 09:24:12;;;;;;;;;;;9.40;99.90;;;;;;4877632;29;19924;-73
2022/04/11 09:26:43;;;;;;;;;;;9.50;99.90;;;;;;4893600;29;19924;-73
2022/04/11 09:29:15;;;;;;;;;;;9.70;99.90;;;;;;4888003;29;19930;-73
2022/04/11 09:31:47;;;;;;;;;;;9.80;99.90;;;;;;4902857;29;20297;-73
2022/04/11 09:34:15;;;;;;;;;;;9.90;99.90;;;;;;4896633;29;20315;-72
2022/04/11 09:36:51;;;;;;;;;;;10.00;99.90;;;;;;4903017;29;20290;-72
2022/04/11 09:39:24;;;;;;;;;;;10.10;99.90;;;;;;4885116;29;19931;-73
2022/04/11 09:41:55;;;;;;;;;;;10.20;99.60;;;;;;4894513;29;19930;-73
2022/04/11 09:44:28;;;;;;;;;;;10.30;99.90;;;;;;4908649;29;19923;-73
2022/04/11 09:47:00;;;;;;;;;;;10.30;99.50;;;;;;4901296;29;19924;-73
2022/04/11 09:49:32;;;;;;;;;;;10.40;99.30;;;;;;4891977;29;20392;-73
2022/04/11 09:52:07;;;;;;;;;;;10.50;97.10;;;;;;4886331;29;20293;-73
2022/04/11 09:54:43;;;;;;;;;;;10.60;98.30;;;;;;4906991;29;19923;-73
2022/04/11 09:57:16;;;;;;;;;;;10.70;96.40;;;;;;4871921;29;19923;-72
2022/04/11 09:59:49;;;;;;;;;;;10.90;95.50;;;;;;4883155;29;19930;-73
2022/04/11 10:02:21;;;;;;;;;;;10.90;95.90;;;;;;4906226;29;19924;-73
2022/04/11 10:04:53;;;;;;;;;;;11.00;97.60;;;;;;4892326;29;19927;-73
2022/04/11 10:07:20;;;;;;;;;;;11.10;97.70;;;;;;4912803;29;20006;-73
2022/04/11 10:09:53;;;;;;;;;;;11.20;95.90;;;;;;4889526;29;19934;-73
2022/04/11 10:12:25;;;;;;;;;;;11.20;95.90;;;;;;4890035;29;20267;-73
2022/04/11 10:14:56;;;;;;;;;;;11.30;95.70;;;;;;4895811;29;19927;-73
2022/04/11 10:17:29;;;;;;;;;;;11.30;95.30;;;;;;4880601;29;19948;-73
2022/04/11 10:20:00;;;;;;;;;;;11.40;93.10;;;;;;4894462;29;19931;-72
2022/04/11 10:22:36;;;;;;;;;;;11.60;93.70;;;;;;4880461;29;19923;-73
2022/04/11 10:25:08;;;;;;;;;;;11.60;95.20;;;;;;4880430;29;19924;-73
2022/04/11 10:27:40;;;;;;;;;;;11.70;94.20;;;;;;4880501;29;19923;-73
2022/04/11 10:30:29;;;;;;;;;;;11.80;94.40;;;;;;4894846;29;19977;-73
2022/04/11 10:33:01;;;;;;;;;;;11.90;94.40;;;;;;4882039;29;19931;-73
2022/04/11 10:35:33;;;;;;;;;;;11.90;92.10;;;;;;4906379;29;20278;-73
2022/04/11 10:38:06;;;;;;;;;;;12.00;93.10;;;;;;4892479;29;20652;-73
2022/04/11 10:40:33;;;;;;;;;;;12.10;91.90;;;;;;4882275;29;19931;-73
2022/04/11 10:43:05;;;;;;;;;;;12.20;91.80;;;;;;4884996;29;19924;-73
2022/04/11 10:45:41;;;;;;;;;;;12.30;90.80;;;;;;4901736;29;20370;-73
2022/04/11 10:48:13;;;;;;;;;;;12.40;90.50;;;;;;4891608;29;19946;-73
2022/04/11 10:50:43;;;;;;;;;;;12.50;90.40;;;;;;4902249;29;19923;-73
2022/04/11 10:53:24;;;;;;;;;;;12.50;90.00;;;;;;4894328;29;20295;-72
2022/04/11 10:55:56;;;;;;;;;;;12.50;89.60;;;;;;4910975;29;19931;-73
2022/04/11 10:58:40;;;;;;;;;;;12.60;89.00;;;;;;4893408;29;19923;-73
2022/04/11 11:01:12;;;;;;;;;;;12.70;91.10;;;;;;4879721;29;19935;-73
2022/04/11 11:03:57;;;;;;;;;;;12.70;88.80;;;;;;4879598;29;19935;-73
2022/04/11 11:06:29;;;;;;;;;;;12.80;90.50;;;;;;4893437;29;19924;-72
2022/04/11 11:09:13;;;;;;;;;;;12.90;86.90;;;;;;4878570;29;19923;-73
2022/04/11 11:11:45;;;;;;;;;;;12.90;90.50;;;;;;4878220;29;19947;-73
2022/04/11 11:14:35;;;;;;;;;;;13.00;90.00;;;;;;4882260;29;19923;-73
2022/04/11 11:17:07;;;;;;;;;;;13.10;88.70;;;;;;4894701;29;19923;-73
2022/04/11 11:19:58;;;;;;;;;;;13.10;85.80;;;;;;4905851;29;19924;-73
2022/04/11 11:22:34;;;;;;;;;;;13.10;87.20;;;;;;4891663;29;19923;-73
2022/04/11 11:25:14;;;;;;;;;;;13.20;87.10;;;;;;4879727;29;19939;-73
2022/04/11 11:27:46;;;;;;;;;;;13.30;89.20;;;;;;4893845;29;20371;-73
2022/04/11 11:30:18;;;;;;;;;;;13.40;86.70;;;;;;4892898;29;19931;-73
2022/04/11 11:32:44;;;;;;;;;;;13.40;86.20;;;;;;4878698;29;19924;-73
2022/04/11 11:35:16;;;;;;;;;;;13.50;86.10;;;;;;4877621;29;19930;-73
2022/04/11 11:37:48;;;;;;;;;;;13.50;87.00;;;;;;4879031;29;20369;-73
2022/04/11 11:40:20;;;;;;;;;;;13.60;88.60;;;;;;4878662;29;19923;-73
2022/04/11 11:42:52;;;;;;;;;;;13.60;90.00;;;;;;4877078;29;19927;-73
2022/04/11 11:45:27;;;;;;;;;;;13.70;86.70;;;;;;4886521;29;20267;-73
2022/04/11 11:48:17;;;;;;;;;;;13.80;87.20;;;;;;4894615;29;19930;-73
2022/04/11 11:50:49;;;;;;;;;;;13.80;87.20;;;;;;4890933;29;19930;-73
2022/04/11 11:53:16;;;;;;;;;;;13.90;86.10;;;;;;4895652;29;19931;-73
2022/04/11 11:55:52;;;;;;;;;;;14.00;84.50;;;;;;4903265;29;19924;-73
2022/04/11 11:58:44;;;;;;;;;;;14.10;85.20;;;;;;4878418;29;19930;-73
2022/04/11 12:01:16;;;;;;;;;;;14.20;83.70;;;;;;4877323;29;20106;-73
2022/04/11 12:06:37;;;;;;;;;;;14.20;80.00;;;;;;4877959;29;19924;-72
2022/04/11 12:09:09;;;;;;;;;;;14.30;82.40;;;;;;4878071;29;19923;-71
2022/04/11 12:11:40;;;;;;;;;;;14.30;81.10;;;;;;4892031;29;20219;-72
2022/04/11 12:14:12;;;;;;;;;;;14.40;80.40;;;;;;4889708;29;19924;-72
2022/04/11 12:17:02;;;;;;;;;;;14.40;77.70;;;;;;4878151;29;20331;-71
2022/04/11 12:19:37;;;;;;;;;;;14.50;79.50;;;;;;4873570;29;19931;-72
2022/04/11 12:22:13;;;;;;;;;;;14.50;80.80;;;;;;4891026;29;19971;-72
2022/04/11 12:24:44;;;;;;;;;;;14.50;79.00;;;;;;4878127;29;19940;-72
2022/04/11 12:27:20;;;;;;;;;;;14.50;77.70;;;;;;4877034;29;19923;-72
2022/04/11 12:29:52;;;;;;;;;;;14.50;78.80;;;;;;4877078;29;19927;-72
2022/04/11 12:32:25;;;;;;;;;;;14.70;81.10;;;;;;4878074;29;19923;-72
2022/04/11 12:35:12;;;;;;;;;;;14.80;81.80;;;;;;4878977;29;20416;-72
2022/04/11 12:37:48;;;;;;;;;;;14.90;78.40;;;;;;4905051;29;20393;-71
2022/04/11 12:40:20;;;;;;;;;;;14.90;78.90;;;;;;4888460;29;19923;-72
2022/04/11 12:42:58;;;;;;;;;;;14.90;77.40;;;;;;4893508;29;20401;-71
2022/04/11 12:45:30;;;;;;;;;;;14.80;76.80;;;;;;4896778;29;19939;-72
2022/04/11 12:48:05;;;;;;;;;;;14.90;74.60;;;;;;4902171;29;19924;-71
2022/04/11 12:50:37;;;;;;;;;;;14.90;77.10;;;;;;4890107;29;20022;-72
2022/04/11 12:53:09;;;;;;;;;;;15.00;73.80;;;;;;4896960;29;20409;-72
2022/04/11 12:55:40;;;;;;;;;;;15.00;72.80;;;;;;4877575;29;20026;-72
2022/04/11 12:58:12;;;;;;;;;;;15.00;74.20;;;;;;4881079;29;19927;-72
2022/04/11 13:00:54;;;;;;;;;;;15.00;75.80;;;;;;4878046;29;19923;-72
2022/04/11 13:03:26;;;;;;;;;;;15.10;74.80;;;;;;4892845;29;19923;-72
2022/04/11 13:05:59;;;;;;;;;;;15.30;76.40;;;;;;4891299;29;19931;-71
2022/04/11 13:08:30;;;;;;;;;;;15.30;73.00;;;;;;4900589;29;19924;-72
2022/04/11 13:11:03;;;;;;;;;;;15.40;72.80;;;;;;4907201;29;19934;-72
2022/04/11 13:13:34;;;;;;;;;;;15.40;71.40;;;;;;4892756;29;19924;-72
2022/04/11 13:18:57;;;;;;;;;;;15.40;69.40;;;;;;4881464;29;19931;-72
2022/04/11 13:21:29;;;;;;;;;;;15.50;70.80;;;;;;4881150;29;19930;-72
2022/04/11 13:24:01;;;;;;;;;;;15.60;73.80;;;;;;4891691;29;20044;-72
2022/04/11 13:26:32;;;;;;;;;;;15.60;71.50;;;;;;4890052;29;19974;-73
2022/04/11 13:29:04;;;;;;;;;;;15.80;69.90;;;;;;4897090;29;19927;-72
2022/04/11 13:31:36;;;;;;;;;;;15.80;68.60;;;;;;4896807;29;19931;-71
2022/04/11 13:34:07;;;;;;;;;;;15.90;68.20;;;;;;4883302;29;19935;-72
2022/04/11 13:36:39;;;;;;;;;;;16.00;69.00;;;;;;4896383;29;19935;-72
2022/04/11 13:39:10;;;;;;;;;;;16.20;68.90;;;;;;4863135;29;20462;-71
2022/04/11 13:41:47;;;;;;;;;;;16.20;63.60;;;;;;4868739;29;19932;-72
2022/04/11 13:44:19;;;;;;;;;;;16.20;66.70;;;;;;4881165;29;19931;-72
2022/04/11 13:46:51;;;;;;;;;;;16.30;64.30;;;;;;4889416;29;19930;-72
2022/04/11 13:49:23;;;;;;;;;;;16.30;63.10;;;;;;4899478;29;19927;-72
2022/04/11 13:51:54;;;;;;;;;;;16.40;63.00;;;;;;4861256;29;19924;-72
2022/04/11 13:54:26;;;;;;;;;;;16.40;63.50;;;;;;4877083;29;19928;-72
2022/04/11 13:56:57;;;;;;;;;;;16.50;63.40;;;;;;4862783;29;19931;-72
2022/04/11 13:59:29;;;;;;;;;;;16.50;61.40;;;;;;4862976;29;20296;-72
2022/04/11 14:02:01;;;;;;;;;;;16.60;59.20;;;;;;4885192;29;20005;-71
2022/04/11 14:04:33;;;;;;;;;;;16.70;59.70;;;;;;4901909;29;19923;-72
2022/04/11 14:07:04;;;;;;;;;;;16.80;62.70;;;;;;4899121;29;19946;-72
2022/04/11 14:09:31;;;;;;;;;;;16.90;62.40;;;;;;4881055;29;19927;-72
2022/04/11 14:12:03;;;;;;;;;;;17.00;60.20;;;;;;4887800;29;20314;-71
2022/04/11 14:14:35;;;;;;;;;;;17.20;58.90;;;;;;4861368;29;19924;-72
2022/04/11 14:17:07;;;;;;;;;;;17.30;61.00;;;;;;4876294;29;19978;-72
2022/04/11 14:19:39;;;;;;;;;;;17.40;60.00;;;;;;4865287;29;19932;-72
2022/04/11 14:22:10;;;;;;;;;;;17.50;60.90;;;;;;4880600;29;20326;-72
2022/04/11 14:24:42;;;;;;;;;;;17.70;59.60;;;;;;4880606;29;19924;-72
2022/04/11 14:27:13;;;;;;;;;;;17.90;62.20;;;;;;4879730;29;19923;-72
2022/04/11 14:29:45;;;;;;;;;;;18.00;56.90;;;;;;4893465;29;19923;-73
2022/04/11 14:32:17;;;;;;;;;;;18.20;57.50;;;;;;4892286;29;19971;-72
2022/04/11 14:34:48;;;;;;;;;;;18.40;55.80;;;;;;4887778;29;19928;-71
2022/04/11 14:37:20;;;;;;;;;;;18.50;58.40;;;;;;4880495;29;19924;-73
2022/04/11 14:39:51;;;;;;;;;;;18.60;55.40;;;;;;4886119;29;20018;-73
2022/04/11 14:42:23;;;;;;;;;;;18.50;57.60;;;;;;4875384;29;19927;-74
2022/04/11 14:44:54;;;;;;;;;;;18.60;55.10;;;;;;4882721;29;19924;-73
2022/04/11 14:47:26;;;;;;;;;;;18.70;55.30;;;;;;4893834;29;19923;-72
2022/04/11 14:49:58;;;;;;;;;;;18.90;55.70;;;;;;4893809;29;19951;-72
2022/04/11 14:52:29;;;;;;;;;;;18.90;54.50;;;;;;4893006;29;20276;-72
2022/04/11 14:54:58;;;;;;;;;;;19.00;55.10;;;;;;4893461;29;19923;-72
2022/04/11 14:57:31;;;;;;;;;;;19.30;56.30;;;;;;4879042;29;19931;-73
2022/04/11 15:00:03;;;;;;;;;;;19.50;54.10;;;;;;4894151;29;20092;-72
2022/04/11 15:02:35;;;;;;;;;;;19.60;53.90;;;;;;4879901;29;19930;-72